Latest Coastal Weather Observations for Cape Otway

IDV60701

Issued at 1:41 pm EST Sunday 25 September 2016 (issued every 10 minutes, with the page automatically refreshed every 10 minutes)

About coastal observations | Map of coastal stations | Coastal observations for VIC | Marine services | Other Formats
Station Details ID: 090015 Name: CAPE OTWAY LIGHTHOUSE Lat: -38.86 Lon: 143.51 Height: 82.0 m
Data from the previous 72 hours. | See also: Recent months at Cape Otway
Date/Time
EST
Temp
°C
Wind Pressure Rain since
9am
mm
Weather Cloud Vis
km
Sea
Height
m
Swell
Dir  Spd
kts
Gust
kts
hPa Trend Height
m
Period
s
Dir
25/01:30pm 12.5 W 15 23 1011.4 - 0.4 - - - - - - -
25/01:00pm 12.5 WSW 15 23 1011.5 - 0.4 - - - - - - -
25/12:30pm 12.6 WSW 15 22 1011.6 - 0.4 - - - - - - -
25/12:00pm 12.1 WSW 19 25 1011.6 - 0.4 - - - - - - -
25/11:30am 12.2 W 15 22 1011.4 - 0.4 - - - - - - -
25/11:00am 11.9 W 18 24 1011.2 - 0.4 - - - - - - -
25/10:30am 11.2 WSW 17 25 1011.0 - 0.4 - - - - - - -
25/10:03am 10.9 W 16 27 1010.9 - 0.0 - - - - - - -
25/10:00am 11.7 WSW 16 23 1010.9 - 0.0 - - - - - - -
25/09:30am 11.3 WSW 18 25 1010.7 - 0.0 - - - - - - -
25/09:00am 11.4 WSW 17 23 1010.6 - 3.8 - - - - - - -
25/08:30am 11.1 WSW 16 24 1010.1 - 3.8 - - - - - - -
25/08:00am 10.8 WSW 18 26 1009.6 - 3.8 - - - - - - -
25/07:30am 10.7 W 18 24 1009.2 - 3.8 - - - - - - -
25/07:00am 10.2 W 16 22 1009.0 - 3.8 - - - - - - -
25/06:30am 9.6 W 18 30 1008.6 - 3.8 - - - - - - -
25/06:00am 8.6 W 19 30 1008.5 - 3.8 - - - - - - -
25/05:49am 10.1 W 17 28 1008.3 - 3.2 - - - - - - -
25/05:30am 10.0 WSW 16 23 1008.2 - 3.2 - - - - - - -
25/05:00am 10.7 W 19 29 1007.6 - 3.2 - - - - - - -
25/04:59am 10.9 W 19 29 1007.6 - 3.2 - - - - - - -
25/04:30am 10.8 W 18 27 1007.3 - 3.2 - - - - - - -
25/04:00am 10.9 W 20 28 1007.1 - 3.2 - - - - - - -
25/03:30am 10.9 W 19 27 1006.8 - 3.2 - - - - - - -
25/03:00am 11.2 W 17 25 1006.8 - 3.2 - - - - - - -
25/02:37am 11.3 W 16 26 1006.6 - 3.2 - - - - - - -
25/02:30am 11.2 W 18 26 1006.7 - 3.2 - - - - - - -
25/02:00am 11.6 W 19 27 1006.5 - 3.2 - - - - - - -
25/01:30am 11.4 W 20 31 1006.3 - 3.2 - - - - - - -
25/01:27am 11.7 W 18 31 1006.3 - 3.2 - - - - - - -
25/01:00am 11.5 W 16 25 1006.3 - 3.2 - - - - - - -
25/12:30am 11.7 W 16 21 1006.2 - 3.2 - - - - - - -
25/12:00am 11.8 WSW 16 22 1006.4 - 3.2 - - - - - - -
 
Date/Time
EST
Temp
°C
Wind Pressure Rain since
9am
mm
Weather Cloud Vis
km
Sea
Height
m
Swell
Dir  Spd
kts
Gust
kts
hPa Trend Height
m
Period
s
Dir
24/11:30pm 11.9 W 16 22 1006.2 - 3.2 - - - - - - -
24/11:00pm 11.4 WSW 15 23 1006.1 - 3.2 - - - - - - -
24/10:41pm 11.9 W 15 25 1006.0 - 3.2 - - - - - - -
24/10:30pm 12.0 W 17 24 1006.0 - 3.2 - - - - - - -
24/10:00pm 11.8 W 18 25 1005.6 - 3.2 - - - - - - -
24/09:30pm 11.6 W 20 29 1005.3 - 3.2 - - - - - - -
24/09:13pm 12.2 W 20 27 1005.1 - 3.0 - - - - - - -
24/09:00pm 12.5 NNW 13 22 1004.6 - 2.6 - - - - - - -
24/08:30pm 12.8 N 11 18 1004.6 - 1.0 - - - - - - -
24/08:00pm 12.9 N 12 18 1004.3 - 0.8 - - - - - - -
24/07:30pm 13.2 N 13 21 1004.0 - 0.4 - - - - - - -
24/07:00pm 14.1 N 10 20 1003.9 - 0.0 - - - - - - -
24/06:30pm 15.2 N 13 23 1003.7 - 0.0 - - - - - - -
24/06:09pm 16.1 NNW 15 25 1003.4 - 0.0 - - - - - - -
24/06:00pm 16.1 N 13 21 1003.3 - 0.0 - - - - - - -
24/05:30pm 16.4 N 14 21 1003.1 - 0.0 - - - - - - -
24/05:00pm 16.4 N 14 20 1003.1 - 0.0 - - - - - - -
24/04:30pm 16.7 N 14 21 1003.1 - 0.0 - - - - - - -
24/04:08pm 16.1 N 15 25 1003.2 - 0.0 - - - - - - -
24/04:00pm 16.8 N 11 19 1003.3 - 0.0 - - - - - - -
24/03:30pm 16.8 NNW 13 25 1003.8 - 0.0 - - - - - - -
24/03:00pm 16.9 N 9 15 1003.8 - 0.0 - - - - - - -
24/02:30pm 17.2 NNW 8 12 1003.9 - 0.0 - - - - - - -
24/02:00pm 17.4 N 10 15 1003.9 - 0.0 - - - - - - -
24/01:30pm 18.0 N 9 13 1004.3 - 0.0 - - - - - - -
24/01:00pm 18.5 N 9 15 1004.2 - 0.0 - - - - - - -
24/12:30pm 18.2 NNE 11 18 1004.9 - 0.0 - - - - - - -
24/12:00pm 17.6 N 14 19 1004.9 - 0.0 - - - - - - -
24/11:30am 17.8 N 15 21 1005.3 - 0.0 - - - - - - -
24/11:08am 17.5 N 15 25 1005.7 - 0.0 - - - - - - -
24/11:00am 16.9 N 17 24 1005.9 - 0.0 - - - - - - -
24/10:30am 17.3 N 14 22 1006.1 - 0.0 - - - - - - -
24/10:00am 15.3 N 15 22 1006.2 - 0.0 - - - - - - -
24/09:30am 15.4 N 13 19 1006.9 - 0.0 - - - - - - -
24/09:00am 14.9 NNE 12 18 1007.2 - 0.0 - - - - - - -
24/08:30am 14.3 NNE 11 15 1007.4 - 0.0 - - - - - - -
24/08:00am 13.3 N 14 20 1007.7 - 0.0 - - - - - - -
24/07:30am 12.5 N 12 17 1008.0 - 0.0 - - - - - - -
24/07:00am 11.6 N 13 20 1007.9 - 0.0 - - - - - - -
24/06:30am 11.0 N 14 18 1007.8 - 0.0 - - - - - - -
24/06:00am 11.1 N 14 19 1007.7 - 0.0 - - - - - - -
24/05:30am 11.2 N 12 16 1007.8 - 0.0 - - - - - - -
24/05:00am 11.1 N 11 16 1007.9 - 0.0 - - - - - - -
24/04:30am 10.7 N 10 13 1008.1 - 0.0 - - - - - - -
24/04:00am 9.9 N 7 10 1008.3 - 0.0 - - - - - - -
24/03:30am 9.9 NNE 6 8 1008.6 - 0.0 - - - - - - -
24/03:00am 10.3 NNE 6 7 1009.0 - 0.0 - - - - - - -
24/02:30am 10.6 NNE 7 8 1009.2 - 0.0 - - - - - - -
24/02:00am 10.6 NNE 8 8 1009.4 - 0.0 - - - - - - -
24/01:30am 10.9 NNE 8 9 1009.6 - 0.0 - - - - - - -
24/01:00am 11.2 NNE 8 9 1009.9 - 0.0 - - - - - - -
24/12:30am 11.8 NNE 8 9 1010.1 - 0.0 - - - - - - -
24/12:00am 11.9 NNE 7 9 1010.4 - 0.0 - - - - - - -
 
Date/Time
EST
Temp
°C
Wind Pressure Rain since
9am
mm
Weather Cloud Vis
km
Sea
Height
m
Swell
Dir  Spd
kts
Gust
kts
hPa Trend Height
m
Period
s
Dir
23/11:30pm 12.2 NNE 8 11 1010.5 - 0.0 - - - - - - -
23/11:00pm 11.7 NE 9 12 1010.7 - 0.0 - - - - - - -
23/10:30pm 11.5 NE 10 13 1010.7 - 0.0 - - - - - - -
23/10:00pm 11.5 NE 11 16 1010.9 - 0.0 - - - - - - -
23/09:30pm 11.6 ENE 12 17 1010.9 - 0.0 - - - - - - -
23/09:00pm 11.8 ENE 12 16 1011.3 - 0.0 - - - - - - -
23/08:30pm 11.9 ENE 13 19 1011.4 - 0.0 - - - - - - -
23/08:00pm 11.8 ENE 14 21 1011.2 - 0.0 - - - - - - -
23/07:30pm 11.9 ENE 12 19 1011.6 - 0.0 - - - - - - -
23/07:00pm 11.7 ENE 12 18 1011.3 - 0.0 - - - - - - -
23/06:30pm 11.5 ENE 13 19 1011.1 - 0.0 - - - - - - -
23/06:00pm 11.5 ENE 14 19 1011.5 - 0.0 - - - - - - -
23/05:30pm 11.8 ENE 13 20 1011.6 - 0.0 - - - - - - -
23/05:00pm 11.9 ENE 13 19 1011.9 - 0.0 - - - - - - -
23/04:30pm 12.3 ENE 11 20 1011.8 - 0.0 - - - - - - -
23/04:00pm 12.2 E 13 21 1011.9 - 0.0 - - - - - - -
23/03:30pm 12.6 E 13 19 1012.0 - 0.0 - - - - - - -
23/03:00pm 12.6 ENE 13 18 1012.3 - 0.0 - - - - - - -
23/02:30pm 12.7 E 12 17 1012.7 - 0.0 - - - - - - -
23/02:00pm 12.7 E 12 18 1013.2 - 0.0 - - - - - - -
23/01:30pm 12.5 E 11 16 1013.6 - 0.0 - - - - - - -
23/01:00pm 12.8 ENE 9 15 1014.0 - 0.0 - - - - - - -
23/12:30pm 12.5 E 8 12 1014.6 - 0.0 - - - - - - -
23/12:00pm 12.1 E 10 15 1015.4 - 0.0 - - - - - - -
23/11:30am 11.9 E 10 15 1015.8 - 0.0 - - - - - - -
23/11:00am 11.5 E 9 13 1016.2 - 0.0 - - - - - - -
23/10:30am 11.5 E 9 13 1016.6 - 0.0 - - - - - - -
23/10:00am 11.5 SE 5 9 1017.1 - 0.0 - - - - - - -
23/09:30am 11.3 ESE 6 9 1017.3 - 0.0 - - - - - - -
23/09:00am 11.2 SSE 4 6 1017.7 - 0.0 - - - - - - -
23/08:30am 10.8 SE 4 5 1017.8 - 0.0 - - - - - - -
23/08:00am 10.2 E 4 6 1017.8 - 0.0 - - - - - - -
23/07:30am 9.9 CALM 0 0 1018.0 - 0.0 - - - - - - -
23/07:00am 9.4 SE 2 4 1018.0 - 0.0 - - - - - - -
23/06:30am 9.4 E 3 6 1017.8 - 0.0 - - - - - - -
23/06:00am 9.2 E 5 7 1017.6 - 0.0 - - - - - - -
23/05:30am 9.4 SSE 4 6 1017.4 - 0.0 - - - - - - -
23/05:00am 9.5 SW 4 5 1017.3 - 0.0 - - - - - - -
23/04:30am 9.6 ESE 5 8 1017.1 - 0.0 - - - - - - -
23/04:00am 9.5 E 5 7 1017.3 - 0.0 - - - - - - -
23/03:30am 9.7 SE 6 9 1017.3 - 0.0 - - - - - - -
23/03:00am 9.8 SSW 4 8 1017.6 - 0.0 - - - - - - -
23/02:30am 9.8 SSW 5 8 1017.9 - 0.0 - - - - - - -
23/02:00am 9.8 S 6 12 1018.3 - 0.0 - - - - - - -
23/01:30am 9.9 SSW 6 9 1018.4 - 0.0 - - - - - - -
23/01:00am 10.0 SSW 8 11 1018.8 - 0.0 - - - - - - -
23/12:30am 10.1 SSW 9 13 1019.0 - 0.0 - - - - - - -
23/12:00am 9.6 CALM 0 3 1019.3 - 0.0 - - - - - - -
 
Date/Time
EST
Temp
°C
Wind Pressure Rain since
9am
mm
Weather Cloud Vis
km
Sea
Height
m
Swell
Dir  Spd
kts
Gust
kts
hPa Trend Height
m
Period
s
Dir
22/11:30pm 9.9 SW 7 10 1019.4 - 0.0 - - - - - - -
22/11:00pm 10.1 SSW 8 12 1019.5 - 0.0 - - - - - - -
22/10:30pm 10.1 SW 7 11 1019.8 - 0.0 - - - - - - -
22/10:00pm 10.1 SW 6 8 1019.5 - 0.0 - - - - - - -
22/09:30pm 10.3 SW 7 11 1019.8 - 0.0 - - - - - - -
22/09:00pm 10.4 SSW 7 12 1019.9 - 0.0 - - - - - - -
22/08:30pm 10.4 SSW 9 14 1019.8 - 0.0 - - - - - - -
22/08:00pm 10.5 SSW 11 16 1019.8 - 0.0 - - - - - - -
22/07:30pm 10.3 SSW 11 16 1019.8 - 0.0 - - - - - - -
22/07:00pm 10.1 SSW 10 15 1019.7 - 0.0 - - - - - - -
22/06:30pm 10.0 SW 11 15 1019.7 - 0.0 - - - - - - -
22/06:00pm 9.8 SSW 12 17 1019.9 - 0.0 - - - - - - -
22/05:30pm 10.0 WSW 12 18 1019.4 - 0.0 - - - - - - -
22/05:00pm 10.1 SSW 11 16 1019.1 - 0.0 - - - - - - -
22/04:30pm 10.2 SSW 14 19 1018.7 - 0.0 - - - - - - -
22/04:00pm 10.6 SSW 16 21 1018.6 - 0.0 - - - - - - -
22/03:30pm 11.3 SSW 14 18 1018.4 - 0.0 - - - - - - -
22/03:00pm 12.1 SSW 14 19 1018.6 - 0.0 - - - - - - -
22/02:30pm 11.2 SSW 13 17 1018.3 - 0.0 - - - - - - -
22/02:00pm 11.8 SSW 12 16 1018.3 - 0.0 - - - - - - -

Other Formats:

Comma delimited format used in spreadsheet applications
http://www.bom.gov.au/fwo/IDV60701/IDV60701.94842.axf

JavaScript Object Notation format (JSON) in row-major order
http://www.bom.gov.au/fwo/IDV60701/IDV60701.94842.json